Flight Track Log - Related Links

Times and Time Zones

All times are in EDT time to prevent confusion due to time zone crossing. See the N664CA flight status page for this flight to view local times or setup timezone preferences in your user account.

Time Position Orientation Groundspeed Altitude Reporting Facility
EDT Latitude Longitude Course Direction KTS MPH feet Rate Location/Type
Tue 02:01:40 PM 40.6500 -73.3000 143° Southeast 113 130 1,600  Level New York TRACON
Tue 02:02:46 PM 40.6333 -73.2833 143° Southeast 94 108 1,400 -95 Descending New York TRACON
Tue 02:03:46 PM 40.6167 -73.2500 123° Southeast 116 133 1,400  Level New York TRACON
Tue 02:04:46 PM 40.6333 -73.2667 323° Northwest 89 102 1,400 100 Level New York TRACON
Tue 02:05:46 PM 40.6167 -73.2667 180° South 100 115 1,600 150 Climbing New York TRACON
Tue 02:06:46 PM 40.6333 -73.2667 360° North 102 117 1,700  Climbing New York TRACON
Tue 02:08:46 PM 40.6167 -73.2667 229° Southwest 112 129 1,600 -50 Descending New York TRACON
Tue 02:10:46 PM 40.6167 -73.2667 229° Southwest 99 114 1,500  Descending New York TRACON
Tue 02:12:40 PM 40.6167 -73.2667 229° Southwest 81 93 1,600 69 Climbing New York TRACON
Tue 02:13:40 PM 40.6333 -73.2500 37° Northeast 114 131 1,700  Climbing New York TRACON
Tue 02:14:40 PM 40.6333 -73.2667 270° West 79 91 1,600 -50 Descending New York TRACON
Tue 02:15:40 PM 40.6167 -73.2500 143° Southeast 125 144 1,600  Level New York TRACON
Tue 02:16:40 PM 40.6333 -73.2667 323° Northwest 81 93 1,600 100 Level New York TRACON
Tue 02:17:40 PM 40.6167 -73.2500 143° Southeast 123 142 1,800 100 Climbing New York TRACON
Tue 02:18:40 PM 40.6333 -73.2667 323° Northwest 87 100 1,800  Level New York TRACON
Tue 02:19:40 PM 40.6167 -73.2667 180° South 92 106 1,800  Level New York TRACON
Tue 02:20:40 PM 40.6333 -73.2500 37° Northeast 110 127 1,800 -50 Level New York TRACON
Tue 02:21:40 PM 40.6333 -73.2667 270° West 76 87 1,700 -100 Descending New York TRACON
Tue 02:22:40 PM 40.6167 -73.2667 180° South 115 132 1,600  Descending New York TRACON
Tue 02:23:40 PM 40.6333 -73.2667 360° North 100 115 1,700 100 Climbing New York TRACON

Login

Don't have an account? Register now (free) for customized features, flight alerts, and more!